Spirit Of Brisbane — 29436QE — position and weather

sailwx.info

Track history (hours):
 
Tides and Currents Weather Stations Pressure Air Temp Water Temp Dewpoint Dewpoint Depression Visibility Wind Speed Wind Dir Waves Ship Positions

Spirit Of Brisbane

Last reported at 2018-Jan-11 03:30 UTC. Time now 2018-Jan-22 18:26 UTC.
Position S 27°27' E 153°06'.
Warning: this ship's position is 11 days out of date.

Length 24 m.

Type: Passenger vessel. MMSI: 503586200.

Date/timePositionNaut miles runAvg speedWind from/ knotsBaromVisibWave heightAir tempDewpointWater temp
2018-Jan-11 03:30S 27°27' E 153°06'0 0.0
2018-Jan-10 22:18S 27°27' E 153°06'0 0.3
2018-Jan-10 21:56S 27°27' E 153°06'0 0.0
2018-Jan-10 21:30S 27°27' E 153°06'0 0.0
2018-Jan-10 21:01S 27°27' E 153°06'0 0.0
2018-Jan-10 20:31S 27°27' E 153°06'0 0.0
2018-Jan-10 20:01S 27°27' E 153°06'0 0.0
2018-Jan-10 19:31S 27°27' E 153°06'0 0.0
2018-Jan-10 19:01S 27°27' E 153°06'0 0.0
2018-Jan-10 18:31S 27°27' E 153°06'0 0.0
2018-Jan-10 18:01S 27°27' E 153°06'0 0.0
2018-Jan-10 17:31S 27°27' E 153°06'0 0.0
2018-Jan-10 17:01S 27°27' E 153°06'0 0.0
2018-Jan-10 16:31S 27°27' E 153°06'0 0.0
2018-Jan-10 16:01S 27°27' E 153°06'0 0.0
2018-Jan-10 15:31S 27°27' E 153°06'0 0.0
2018-Jan-10 15:00S 27°27' E 153°06'0 0.0
2018-Jan-10 14:31S 27°27' E 153°06'0 0.0
2018-Jan-10 14:00S 27°27' E 153°06'0 0.0
2018-Jan-10 13:31S 27°27' E 153°06'0 0.0
2018-Jan-10 13:01S 27°27' E 153°06'0 0.0
2018-Jan-10 12:30S 27°27' E 153°06'0 0.0
2018-Jan-10 12:00S 27°27' E 153°06'0 0.0
2018-Jan-10 11:30S 27°27' E 153°06'0 0.0
2018-Jan-10 11:00S 27°27' E 153°06'0 0.0
2018-Jan-10 10:31S 27°27' E 153°06'0 0.0
2018-Jan-10 10:01S 27°27' E 153°06'0 0.0
2018-Jan-10 09:31S 27°27' E 153°06'0 0.0
2018-Jan-10 09:01S 27°27' E 153°06'4 0.1
2018-Jan-08 21:26S 27°28' E 153°02'3 1.5
2018-Jan-08 19:15S 27°27' E 153°05'3 0.4
2018-Jan-08 11:53S 27°28' E 153°02'1 1.2
2018-Jan-08 10:58S 27°28' E 153°01'4 3.3
2018-Jan-08 09:43S 27°27' E 153°05'3 0.3
2018-Jan-07 21:51S 27°28' E 153°02'  
2018-Jan-04 20:26S 27°28' E 153°02'1 0.0
2018-Jan-03 06:35S 27°28' E 153°03'  
Track history (hours):
 
Tides and Currents Weather Stations Pressure Air Temp Water Temp Dewpoint Dewpoint Depression Visibility Wind Speed Wind Dir Waves Ship Positions

Spirit Of Brisbane

Last reported at 2018-Jan-11 03:30 UTC. Time now 2018-Jan-22 18:26 UTC.
Position S 27°27' E 153°06'.
Warning: this ship's position is 11 days out of date.

Length 24 m.

Type: Passenger vessel. MMSI: 503586200.

Date/timePositionNaut miles runAvg speedWind from/ knotsBaromVisibWave heightAir tempDewpointWater temp
2018-Jan-11 03:30S 27°27' E 153°06'0 0.0
2018-Jan-10 22:18S 27°27' E 153°06'0 0.3
2018-Jan-10 21:56S 27°27' E 153°06'0 0.0
2018-Jan-10 21:30S 27°27' E 153°06'0 0.0
2018-Jan-10 21:01S 27°27' E 153°06'0 0.0
2018-Jan-10 20:31S 27°27' E 153°06'0 0.0
2018-Jan-10 20:01S 27°27' E 153°06'0 0.0
2018-Jan-10 19:31S 27°27' E 153°06'0 0.0
2018-Jan-10 19:01S 27°27' E 153°06'0 0.0
2018-Jan-10 18:31S 27°27' E 153°06'0 0.0
2018-Jan-10 18:01S 27°27' E 153°06'0 0.0
2018-Jan-10 17:31S 27°27' E 153°06'0 0.0
2018-Jan-10 17:01S 27°27' E 153°06'0 0.0
2018-Jan-10 16:31S 27°27' E 153°06'0 0.0
2018-Jan-10 16:01S 27°27' E 153°06'0 0.0
2018-Jan-10 15:31S 27°27' E 153°06'0 0.0
2018-Jan-10 15:00S 27°27' E 153°06'0 0.0
2018-Jan-10 14:31S 27°27' E 153°06'0 0.0
2018-Jan-10 14:00S 27°27' E 153°06'0 0.0
2018-Jan-10 13:31S 27°27' E 153°06'0 0.0
2018-Jan-10 13:01S 27°27' E 153°06'0 0.0
2018-Jan-10 12:30S 27°27' E 153°06'0 0.0
2018-Jan-10 12:00S 27°27' E 153°06'0 0.0
2018-Jan-10 11:30S 27°27' E 153°06'0 0.0
2018-Jan-10 11:00S 27°27' E 153°06'0 0.0
2018-Jan-10 10:31S 27°27' E 153°06'0 0.0
2018-Jan-10 10:01S 27°27' E 153°06'0 0.0
2018-Jan-10 09:31S 27°27' E 153°06'0 0.0
2018-Jan-10 09:01S 27°27' E 153°06'4 0.1
2018-Jan-08 21:26S 27°28' E 153°02'3 1.5
2018-Jan-08 19:15S 27°27' E 153°05'3 0.4
2018-Jan-08 11:53S 27°28' E 153°02'1 1.2
2018-Jan-08 10:58S 27°28' E 153°01'4 3.3
2018-Jan-08 09:43S 27°27' E 153°05'3 0.3
2018-Jan-07 21:51S 27°28' E 153°02'  
2018-Jan-04 20:26S 27°28' E 153°02'1 0.0
2018-Jan-03 06:35S 27°28' E 153°03'  

Dump ship's entire track history